Templar Park, Iowa
Current Conditions -  °F | °C
As of 10:13 AM on Thursday 29 Jan 2015 (Local Time) from KMJQ Reporting Station
Overcast Overcast  
Wind Chill: 16°   Ceiling: 1200
Heat Index: 30°   Visibility: 10mi
Dew Point: 25°   Wind: 25mph
Humidity: 80%   Direction: 320°NW
Pressure: 30.28"   Gusts: 35mph
Location:  43.4265°N, 95.1547°W
Report Text: KMJQ 291613Z AUTO 32022G30KT 10SM OVC012 M01/M04 A3028 RMK AO2
Loading
Personal Weather Stations






























Interactive Weather Map New forecast layout! Learn more

10-Day Weather Forecast

Advertisements
Track Severe Weather on mobile